createdAt,value
2022-10-09T00:01:03.317Z,100.00
2022-10-09T00:03:30.982Z,100.00
2022-10-09T00:05:58.833Z,100.00
2022-10-09T00:08:26.443Z,100.00
2022-10-09T00:10:55.418Z,100.00
2022-10-09T00:13:23.545Z,100.00
2022-10-09T00:15:51.089Z,100.00
2022-10-09T00:18:19.733Z,100.00
2022-10-09T00:20:48.102Z,100.00
2022-10-09T00:23:17.397Z,100.00
2022-10-09T00:25:52.098Z,100.00
2022-10-09T00:28:21.101Z,100.00
2022-10-09T00:30:48.839Z,100.00
2022-10-09T00:33:16.468Z,100.00
2022-10-09T00:35:44.154Z,100.00
2022-10-09T00:38:11.858Z,100.00
2022-10-09T00:40:40.269Z,100.00
2022-10-09T00:43:13.306Z,100.00
2022-10-09T00:45:45.033Z,100.00
2022-10-09T00:48:13.527Z,100.00
2022-10-09T00:50:44.739Z,100.00
2022-10-09T00:53:16.737Z,100.00
2022-10-09T00:55:44.381Z,100.00
2022-10-09T00:58:13.765Z,100.00
2022-10-09T01:00:42.774Z,100.00
2022-10-09T01:03:10.318Z,100.00
2022-10-09T01:05:49.400Z,100.00
2022-10-09T01:08:21.441Z,100.00
2022-10-09T01:10:55.348Z,100.00
2022-10-09T01:13:29.127Z,100.00
2022-10-09T01:16:01.207Z,100.00
2022-10-09T01:18:38.136Z,100.00
2022-10-09T01:21:11.833Z,100.00
2022-10-09T01:23:54.060Z,100.00
2022-10-09T01:26:35.694Z,100.00
2022-10-09T01:29:08.893Z,100.00
2022-10-09T01:31:40.357Z,100.00
2022-10-09T01:34:09.351Z,100.00
2022-10-09T01:36:38.024Z,100.00
2022-10-09T01:39:08.595Z,100.00
2022-10-09T01:41:36.325Z,100.00
2022-10-09T01:44:15.445Z,100.00
2022-10-09T01:46:43.091Z,100.00
2022-10-09T01:49:18.550Z,100.00
2022-10-09T01:51:52.718Z,100.00
2022-10-09T01:54:30.170Z,100.00
2022-10-09T01:57:03.333Z,100.00
2022-10-09T01:59:37.272Z,100.00
2022-10-09T02:02:06.073Z,100.00
2022-10-09T02:04:34.905Z,100.00
2022-10-09T02:07:02.970Z,100.00
2022-10-09T02:09:31.462Z,100.00
2022-10-09T02:12:05.293Z,100.00
2022-10-09T02:14:34.796Z,100.00
2022-10-09T02:17:06.767Z,100.00
2022-10-09T02:19:39.971Z,100.00
2022-10-09T02:22:14.002Z,100.00
2022-10-09T02:24:43.201Z,100.00
2022-10-09T02:27:12.256Z,100.00
2022-10-09T02:29:42.589Z,100.00
2022-10-09T02:32:10.959Z,100.00
2022-10-09T02:34:38.665Z,100.00
2022-10-09T02:37:06.854Z,100.00
2022-10-09T02:39:34.618Z,100.00
2022-10-09T02:42:02.281Z,100.00
2022-10-09T02:44:30.151Z,100.00
2022-10-09T02:46:59.030Z,100.00
2022-10-09T02:49:26.583Z,100.00
2022-10-09T02:51:54.219Z,100.00
2022-10-09T02:54:21.767Z,100.00
2022-10-09T02:56:49.284Z,100.00
2022-10-09T02:59:17.021Z,100.00
2022-10-09T03:01:45.828Z,100.00
2022-10-09T03:04:14.793Z,100.00
2022-10-09T03:06:42.678Z,100.00
2022-10-09T03:09:10.194Z,100.00
2022-10-09T03:11:37.746Z,100.00
2022-10-09T03:14:05.253Z,100.00
2022-10-09T03:16:32.849Z,100.00
2022-10-09T03:19:00.438Z,100.00
2022-10-09T03:21:29.350Z,100.00
2022-10-09T03:23:57.362Z,100.00
2022-10-09T03:26:27.661Z,100.00
2022-10-09T03:28:56.629Z,100.00
2022-10-09T03:31:50.695Z,100.00
2022-10-09T03:34:14.487Z,100.00
2022-10-09T03:36:43.474Z,100.00
2022-10-09T03:39:11.351Z,100.00
2022-10-09T03:41:38.906Z,100.00
2022-10-09T03:44:06.625Z,100.00
2022-10-09T03:46:34.304Z,100.00
2022-10-09T03:49:01.894Z,100.00
2022-10-09T03:51:29.435Z,100.00
2022-10-09T03:53:58.349Z,100.00
2022-10-09T03:56:26.051Z,100.00
2022-10-09T03:58:53.585Z,100.00
2022-10-09T04:01:21.157Z,100.00
2022-10-09T04:03:48.938Z,100.00
2022-10-09T04:06:17.495Z,100.00
2022-10-09T04:08:45.027Z,100.00
2022-10-09T04:11:13.903Z,100.00
2022-10-09T04:13:41.450Z,100.00
2022-10-09T04:16:12.545Z,100.00
2022-10-09T04:18:40.565Z,100.00
2022-10-09T04:21:08.712Z,100.00
2022-10-09T04:23:36.253Z,100.00
2022-10-09T04:26:03.850Z,100.00
2022-10-09T04:28:33.494Z,100.00
2022-10-09T04:31:01.382Z,100.00
2022-10-09T04:33:29.502Z,100.00
2022-10-09T04:35:57.949Z,100.00
2022-10-09T04:38:25.754Z,100.00
2022-10-09T04:40:57.779Z,100.00
2022-10-09T04:43:25.783Z,100.00
2022-10-09T04:45:54.767Z,100.00
2022-10-09T04:48:22.693Z,100.00
2022-10-09T04:50:50.411Z,100.00
2022-10-09T04:53:17.974Z,100.00
2022-10-09T04:55:46.278Z,100.00
2022-10-09T04:58:14.936Z,100.00
2022-10-09T05:00:43.412Z,100.00
2022-10-09T05:03:12.901Z,100.00
2022-10-09T05:05:40.570Z,100.00
2022-10-09T05:08:08.129Z,100.00
2022-10-09T05:10:35.667Z,100.00
2022-10-09T05:13:03.206Z,100.00
2022-10-09T05:15:30.905Z,100.00
2022-10-09T05:17:58.645Z,100.00
2022-10-09T05:20:27.586Z,100.00
2022-10-09T05:22:55.125Z,100.00
2022-10-09T05:25:22.630Z,100.00
2022-10-09T05:27:50.217Z,100.00
2022-10-09T05:30:17.975Z,100.00
2022-10-09T05:32:45.508Z,100.00
2022-10-09T05:35:13.040Z,100.00
2022-10-09T05:37:45.122Z,100.00
2022-10-09T05:40:12.742Z,100.00
2022-10-09T05:42:40.286Z,100.00
2022-10-09T05:45:09.394Z,100.00
2022-10-09T05:47:36.905Z,100.00
2022-10-09T05:50:04.845Z,100.00
2022-10-09T05:52:32.365Z,100.00
2022-10-09T05:55:01.298Z,100.00
2022-10-09T05:57:29.190Z,100.00
2022-10-09T05:59:56.693Z,100.00
2022-10-09T06:02:24.325Z,100.00
2022-10-09T06:04:51.927Z,100.00
2022-10-09T06:07:19.433Z,100.00
2022-10-09T06:09:46.958Z,100.00
2022-10-09T06:12:15.826Z,100.00
2022-10-09T06:14:43.357Z,100.00
2022-10-09T06:17:10.893Z,100.00
2022-10-09T06:19:38.398Z,100.00
2022-10-09T06:22:05.930Z,100.00
2022-10-09T06:24:33.447Z,100.00
2022-10-09T06:27:01.070Z,100.00
2022-10-09T06:29:30.517Z,100.00
2022-10-09T06:31:58.199Z,100.00
2022-10-09T06:34:25.970Z,100.00
2022-10-09T06:36:53.504Z,100.00
2022-10-09T06:39:21.094Z,100.00
2022-10-09T06:41:48.627Z,100.00
2022-10-09T06:44:17.348Z,100.00
2022-10-09T06:46:49.807Z,100.00
2022-10-09T06:49:17.378Z,100.00
2022-10-09T06:51:45.031Z,100.00
2022-10-09T06:54:14.211Z,100.00
2022-10-09T06:56:42.077Z,100.00
2022-10-09T06:59:12.010Z,100.00
2022-10-09T07:01:39.705Z,100.00
2022-10-09T07:04:11.739Z,100.00
2022-10-09T07:06:42.002Z,100.00
2022-10-09T07:09:12.338Z,100.00
2022-10-09T07:11:42.973Z,100.00
2022-10-09T07:14:11.925Z,100.00
2022-10-09T07:16:42.391Z,100.00
2022-10-09T07:19:12.859Z,100.00
2022-10-09T07:21:42.198Z,100.00
2022-10-09T07:24:11.186Z,100.00
2022-10-09T07:26:41.405Z,100.00
2022-10-09T07:29:10.157Z,100.00
2022-10-09T07:31:37.713Z,100.00
2022-10-09T07:34:06.230Z,100.00
2022-10-09T07:36:35.667Z,100.00
2022-10-09T07:39:03.352Z,100.00
2022-10-09T07:41:30.987Z,100.00
2022-10-09T07:43:58.958Z,100.00
2022-10-09T07:46:33.023Z,100.00
2022-10-09T07:49:01.922Z,100.00
2022-10-09T07:51:30.671Z,100.00
2022-10-09T07:54:01.743Z,100.00
2022-10-09T07:56:31.083Z,100.00
2022-10-09T07:59:00.161Z,100.00
2022-10-09T08:01:29.283Z,100.00
2022-10-09T08:03:57.536Z,100.00
2022-10-09T08:06:25.211Z,100.00
2022-10-09T08:08:54.324Z,100.00
2022-10-09T08:11:24.695Z,100.00
2022-10-09T08:13:53.655Z,100.00
2022-10-09T08:16:22.772Z,100.00
2022-10-09T08:18:50.454Z,100.00
2022-10-09T08:21:19.742Z,100.00
2022-10-09T08:23:47.439Z,100.00
2022-10-09T08:26:16.221Z,100.00
2022-10-09T08:28:45.459Z,100.00
2022-10-09T08:31:14.444Z,100.00
2022-10-09T08:33:42.229Z,100.00
2022-10-09T08:36:14.349Z,100.00
2022-10-09T08:38:47.642Z,100.00
2022-10-09T08:41:24.289Z,100.00
2022-10-09T08:44:01.067Z,100.00
2022-10-09T08:46:34.409Z,100.00
2022-10-09T08:49:05.242Z,100.00
2022-10-09T08:51:39.146Z,100.00
2022-10-09T08:54:14.427Z,100.00
2022-10-09T08:56:42.023Z,100.00
2022-10-09T08:59:12.793Z,100.00
2022-10-09T09:01:48.595Z,100.00
2022-10-09T09:04:34.314Z,100.00
2022-10-09T09:07:11.563Z,100.00
2022-10-09T09:09:47.960Z,100.00
2022-10-09T09:12:21.621Z,100.00
2022-10-09T09:15:02.328Z,100.00
2022-10-09T09:17:38.374Z,100.00
2022-10-09T09:20:15.958Z,100.00
2022-10-09T09:22:47.373Z,100.00
2022-10-09T09:25:20.803Z,100.00
2022-10-09T09:27:48.981Z,100.00
2022-10-09T09:30:21.578Z,100.00
2022-10-09T09:32:57.538Z,100.00
2022-10-09T09:35:30.927Z,100.00
2022-10-09T09:37:58.461Z,100.00
2022-10-09T09:40:36.863Z,100.00
2022-10-09T09:43:16.477Z,100.00
2022-10-09T09:45:46.132Z,100.00
2022-10-09T09:48:17.342Z,100.00
2022-10-09T09:50:52.981Z,100.00
2022-10-09T09:53:36.724Z,99.27
2022-10-09T09:56:04.912Z,97.16
2022-10-09T09:58:37.034Z,97.53
2022-10-09T10:01:07.595Z,99.00
2022-10-09T10:03:36.724Z,97.43
2022-10-09T10:06:04.759Z,99.54
2022-10-09T10:08:34.702Z,99.01
2022-10-09T10:11:04.284Z,99.72
2022-10-09T10:13:35.758Z,99.75
2022-10-09T10:16:04.493Z,96.71
2022-10-09T10:18:40.148Z,97.61
2022-10-09T10:21:12.249Z,95.18
2022-10-09T10:23:42.852Z,92.99
2022-10-09T10:26:21.522Z,93.25
2022-10-09T10:28:55.098Z,94.12
2022-10-09T10:31:48.607Z,90.79
2022-10-09T10:34:23.384Z,87.53
2022-10-09T10:37:02.478Z,87.54
2022-10-09T10:39:37.821Z,87.40
2022-10-09T10:42:16.514Z,85.64
2022-10-09T10:44:51.609Z,87.21
2022-10-09T10:47:24.750Z,89.13
2022-10-09T10:49:54.034Z,87.21
2022-10-09T10:52:36.214Z,90.53
2022-10-09T10:55:16.909Z,85.30
2022-10-09T10:57:52.929Z,83.42
2022-10-09T11:00:20.663Z,78.85
2022-10-09T11:03:02.771Z,82.22
2022-10-09T11:05:42.689Z,83.70
2022-10-09T11:08:26.315Z,84.96
2022-10-09T11:11:03.225Z,82.99
2022-10-09T11:13:34.905Z,80.97
2022-10-09T11:16:15.240Z,80.24
2022-10-09T11:18:56.073Z,75.99
2022-10-09T11:21:36.503Z,76.16
2022-10-09T11:24:26.663Z,72.16
2022-10-09T11:27:03.640Z,74.55
2022-10-09T11:29:38.150Z,71.49
2022-10-09T11:32:13.620Z,75.24
2022-10-09T11:34:45.771Z,70.17
2022-10-09T11:37:21.362Z,72.55
2022-10-09T11:39:49.038Z,70.82
2022-10-09T11:42:25.134Z,71.65
2022-10-09T11:45:03.634Z,71.29
2022-10-09T11:47:40.790Z,71.97
2022-10-09T11:50:23.710Z,70.90
2022-10-09T11:52:59.136Z,71.80
2022-10-09T11:55:28.554Z,74.39
2022-10-09T11:57:56.168Z,70.86
2022-10-09T12:00:32.030Z,68.00
2022-10-09T12:03:03.166Z,69.21
2022-10-09T12:05:39.689Z,70.36
2022-10-09T12:08:15.354Z,68.99
2022-10-09T12:10:51.967Z,68.11
2022-10-09T12:13:32.783Z,68.77
2022-10-09T12:16:01.094Z,65.00
2022-10-09T12:18:31.149Z,68.27
2022-10-09T12:21:02.342Z,67.59
2022-10-09T12:23:35.318Z,67.33
2022-10-09T12:26:03.679Z,69.55
2022-10-09T12:28:36.577Z,70.39
2022-10-09T12:31:08.140Z,69.25
2022-10-09T12:33:39.046Z,69.25
2022-10-09T12:36:13.258Z,71.06
2022-10-09T12:38:42.698Z,68.93
2022-10-09T12:41:20.133Z,69.01
2022-10-09T12:43:49.726Z,69.76
2022-10-09T12:46:27.499Z,68.52
2022-10-09T12:48:55.471Z,69.94
2022-10-09T12:51:26.135Z,69.96
2022-10-09T12:53:55.880Z,68.76
2022-10-09T12:56:26.398Z,67.82
2022-10-09T12:58:54.473Z,67.81
2022-10-09T13:01:22.824Z,68.87
2022-10-09T13:03:56.132Z,70.33
2022-10-09T13:06:26.109Z,69.96
2022-10-09T13:08:57.640Z,69.53
2022-10-09T13:11:31.418Z,67.88
2022-10-09T13:13:59.330Z,66.91
2022-10-09T13:16:27.097Z,68.45
2022-10-09T13:18:57.852Z,67.61
2022-10-09T13:21:31.511Z,67.16
2022-10-09T13:24:10.378Z,69.66
2022-10-09T13:26:39.666Z,69.42
2022-10-09T13:29:08.434Z,69.06
2022-10-09T13:31:36.952Z,70.23
2022-10-09T13:34:12.469Z,70.99
2022-10-09T13:36:40.100Z,66.96
2022-10-09T13:39:14.428Z,66.92
2022-10-09T13:41:43.822Z,65.94
2022-10-09T13:44:11.489Z,66.90
2022-10-09T13:46:39.030Z,66.64
2022-10-09T13:49:06.631Z,68.46
2022-10-09T13:51:34.628Z,68.09
2022-10-09T13:54:02.162Z,68.07
2022-10-09T13:56:31.044Z,67.63
2022-10-09T13:58:58.690Z,67.71
2022-10-09T14:01:26.320Z,67.34
2022-10-09T14:03:53.874Z,68.01
2022-10-09T14:06:22.348Z,69.24
2022-10-09T14:08:50.658Z,70.17
2022-10-09T14:11:18.245Z,71.37
2022-10-09T14:13:47.120Z,70.39
2022-10-09T14:16:15.666Z,70.70
2022-10-09T14:18:43.250Z,71.93
2022-10-09T14:21:15.004Z,72.48
2022-10-09T14:23:43.756Z,72.80
2022-10-09T14:26:11.530Z,73.83
2022-10-09T14:28:39.225Z,74.52
2022-10-09T14:31:08.781Z,74.01
2022-10-09T14:33:36.646Z,73.70
2022-10-09T14:36:08.757Z,73.01
2022-10-09T14:38:39.851Z,73.43
2022-10-09T14:41:07.787Z,73.16
2022-10-09T14:43:35.803Z,73.81
2022-10-09T14:46:06.417Z,73.84
2022-10-09T14:48:36.089Z,74.93
2022-10-09T14:51:04.741Z,75.15
2022-10-09T14:53:32.793Z,75.78
2022-10-09T14:56:03.444Z,75.44
2022-10-09T14:58:31.658Z,74.33
2022-10-09T15:00:59.898Z,73.16
2022-10-09T15:03:29.054Z,73.02
2022-10-09T15:05:59.536Z,73.16
2022-10-09T15:08:27.597Z,72.23
2022-10-09T15:10:55.606Z,71.32
2022-10-09T15:13:23.121Z,71.80
2022-10-09T15:15:50.653Z,71.06
2022-10-09T15:18:18.614Z,71.79
2022-10-09T15:20:47.069Z,71.39
2022-10-09T15:23:16.022Z,71.61
2022-10-09T15:25:49.189Z,71.49
2022-10-09T15:28:17.380Z,72.55
2022-10-09T15:30:45.992Z,73.00
2022-10-09T15:33:13.701Z,73.58
2022-10-09T15:35:41.647Z,74.78
2022-10-09T15:38:15.026Z,75.81
2022-10-09T15:40:46.140Z,76.98
2022-10-09T15:43:14.842Z,77.99
2022-10-09T15:45:42.889Z,79.06
2022-10-09T15:48:16.461Z,79.63
2022-10-09T15:50:46.335Z,79.88
2022-10-09T15:53:15.065Z,80.16
2022-10-09T15:55:45.958Z,80.92
2022-10-09T15:58:13.957Z,81.29
2022-10-09T16:00:43.893Z,81.87
2022-10-09T16:03:11.705Z,82.91
2022-10-09T16:05:40.346Z,83.21
2022-10-09T16:08:08.786Z,83.65
2022-10-09T16:10:46.338Z,84.77
2022-10-09T16:13:17.703Z,85.02
2022-10-09T16:15:47.333Z,85.15
2022-10-09T16:18:16.708Z,85.87
2022-10-09T16:20:44.697Z,86.24
2022-10-09T16:23:12.880Z,86.40
2022-10-09T16:25:41.481Z,86.81
2022-10-09T16:28:11.697Z,87.65
2022-10-09T16:30:42.210Z,88.24
2022-10-09T16:33:12.624Z,88.72
2022-10-09T16:35:40.791Z,89.34
2022-10-09T16:38:08.946Z,88.97
2022-10-09T16:43:24.048Z,90.72
2022-10-09T16:45:52.910Z,90.92
2022-10-09T16:48:20.462Z,91.15
2022-10-09T16:50:48.383Z,92.09
2022-10-09T16:53:15.901Z,92.55
2022-10-09T16:55:43.433Z,92.29
2022-10-09T16:58:10.972Z,92.95
2022-10-09T17:00:38.540Z,92.82
2022-10-09T17:03:07.461Z,93.63
2022-10-09T17:05:39.175Z,93.91
2022-10-09T17:08:06.739Z,94.33
2022-10-09T17:10:34.304Z,95.01
2022-10-09T17:13:01.825Z,95.45
2022-10-09T17:15:29.354Z,96.16
2022-10-09T17:17:56.888Z,96.46
2022-10-09T17:20:25.778Z,96.58
2022-10-09T17:22:53.293Z,97.18
2022-10-09T17:25:20.831Z,97.53
2022-10-09T17:27:48.375Z,97.92
2022-10-09T17:30:16.121Z,98.46
2022-10-09T17:32:43.701Z,99.21
2022-10-09T17:35:11.611Z,100.00
2022-10-09T17:37:40.498Z,100.00
2022-10-09T17:40:08.733Z,100.00
2022-10-09T17:42:36.283Z,100.00
2022-10-09T17:45:04.003Z,100.00
2022-10-09T17:47:31.571Z,100.00
2022-10-09T17:49:59.099Z,100.00
2022-10-09T17:52:26.701Z,100.00
2022-10-09T17:54:55.688Z,100.00
2022-10-09T17:57:23.259Z,100.00
2022-10-09T17:59:50.774Z,100.00
2022-10-09T18:02:18.321Z,100.00
2022-10-09T18:04:45.868Z,100.00
2022-10-09T18:07:13.830Z,100.00
2022-10-09T18:09:41.357Z,100.00
2022-10-09T18:12:10.238Z,100.00
2022-10-09T18:14:37.754Z,100.00
2022-10-09T18:17:05.274Z,100.00
2022-10-09T18:19:32.865Z,100.00
2022-10-09T18:22:00.393Z,100.00
2022-10-09T18:24:28.031Z,100.00
2022-10-09T18:26:55.586Z,100.00
2022-10-09T18:29:24.518Z,100.00
2022-10-09T18:31:55.556Z,100.00
2022-10-09T18:34:23.221Z,100.00
2022-10-09T18:36:52.178Z,100.00
2022-10-09T18:39:21.433Z,100.00
2022-10-09T18:41:48.982Z,100.00
2022-10-09T18:44:19.962Z,100.00
2022-10-09T18:46:52.561Z,100.00
2022-10-09T18:49:23.573Z,100.00
2022-10-09T18:51:52.158Z,100.00
2022-10-09T18:54:22.862Z,100.00
2022-10-09T18:56:50.538Z,100.00
2022-10-09T18:59:21.678Z,100.00
2022-10-09T19:01:50.776Z,100.00
2022-10-09T19:04:18.956Z,100.00
2022-10-09T19:06:46.633Z,100.00
2022-10-09T19:09:14.724Z,100.00
2022-10-09T19:11:42.302Z,100.00
2022-10-09T19:14:09.842Z,100.00
2022-10-09T19:16:37.380Z,100.00
2022-10-09T19:19:07.111Z,100.00
2022-10-09T19:21:36.272Z,100.00
2022-10-09T19:24:06.131Z,100.00
2022-10-09T19:26:35.200Z,100.00
2022-10-09T19:29:02.829Z,100.00
2022-10-09T19:31:31.891Z,100.00
2022-10-09T19:34:00.802Z,100.00
2022-10-09T19:36:33.048Z,100.00
2022-10-09T19:39:00.677Z,100.00
2022-10-09T19:41:28.401Z,100.00
2022-10-09T19:43:56.052Z,100.00
2022-10-09T19:46:23.872Z,100.00
2022-10-09T19:48:51.819Z,100.00
2022-10-09T19:51:21.505Z,100.00
2022-10-09T19:53:52.064Z,100.00
2022-10-09T19:56:21.766Z,100.00
2022-10-09T19:58:50.598Z,100.00
2022-10-09T20:01:19.789Z,100.00
2022-10-09T20:03:48.538Z,100.00
2022-10-09T20:06:16.579Z,100.00
2022-10-09T20:08:45.116Z,100.00
2022-10-09T20:11:14.101Z,100.00
2022-10-09T20:13:43.039Z,100.00
2022-10-09T20:16:12.947Z,100.00
2022-10-09T20:18:42.144Z,100.00
2022-10-09T20:21:10.559Z,100.00
2022-10-09T20:23:38.100Z,100.00
2022-10-09T20:26:08.406Z,100.00
2022-10-09T20:28:38.390Z,100.00
2022-10-09T20:31:08.110Z,100.00
2022-10-09T20:33:36.600Z,100.00
2022-10-09T20:36:05.414Z,100.00
2022-10-09T20:38:32.997Z,100.00
2022-10-09T20:41:04.551Z,100.00
2022-10-09T20:43:32.078Z,100.00
2022-10-09T20:46:00.943Z,100.00
2022-10-09T20:48:28.477Z,100.00
2022-10-09T20:50:55.995Z,100.00
2022-10-09T20:53:23.521Z,100.00
2022-10-09T20:55:51.030Z,100.00
2022-10-09T20:58:18.698Z,100.00
2022-10-09T21:00:46.278Z,100.00
2022-10-09T21:03:15.158Z,100.00
2022-10-09T21:05:43.682Z,100.00
2022-10-09T21:08:11.437Z,100.00
2022-10-09T21:10:43.695Z,100.00
2022-10-09T21:13:11.233Z,100.00
2022-10-09T21:15:43.639Z,100.00
2022-10-09T21:18:11.750Z,100.00
2022-10-09T21:20:41.958Z,100.00
2022-10-09T21:23:10.432Z,100.00
2022-10-09T21:25:38.698Z,100.00
2022-10-09T21:28:06.774Z,100.00
2022-10-09T21:30:41.611Z,100.00
2022-10-09T21:33:09.606Z,100.00
2022-10-09T21:35:41.339Z,100.00
2022-10-09T21:38:12.875Z,100.00
2022-10-09T21:40:40.510Z,100.00
2022-10-09T21:43:10.442Z,100.00
2022-10-09T21:45:38.721Z,100.00
2022-10-09T21:48:07.009Z,100.00
2022-10-09T21:50:36.238Z,100.00
2022-10-09T21:53:05.515Z,100.00
2022-10-09T21:55:33.203Z,100.00
2022-10-09T21:58:00.768Z,100.00
2022-10-09T22:00:28.307Z,100.00
2022-10-09T22:02:55.867Z,100.00
2022-10-09T22:05:23.408Z,100.00
2022-10-09T22:07:51.014Z,100.00
2022-10-09T22:10:20.547Z,100.00
2022-10-09T22:12:48.239Z,100.00
2022-10-09T22:15:16.050Z,100.00
2022-10-09T22:17:43.578Z,100.00
2022-10-09T22:20:11.140Z,100.00
2022-10-09T22:22:38.671Z,100.00
2022-10-09T22:25:07.309Z,100.00
2022-10-09T22:27:36.298Z,100.00
2022-10-09T22:30:04.217Z,100.00
2022-10-09T22:32:31.750Z,100.00
2022-10-09T22:34:59.311Z,100.00
2022-10-09T22:37:26.922Z,100.00
2022-10-09T22:39:54.426Z,100.00
2022-10-09T22:42:21.991Z,100.00
2022-10-09T22:44:50.861Z,100.00
2022-10-09T22:47:18.390Z,100.00
2022-10-09T22:49:46.168Z,100.00
2022-10-09T22:52:13.682Z,100.00
2022-10-09T22:54:41.225Z,100.00
2022-10-09T22:57:08.858Z,100.00
2022-10-09T22:59:36.441Z,100.00
2022-10-09T23:02:05.478Z,100.00
2022-10-09T23:04:33.174Z,100.00
2022-10-09T23:07:01.919Z,100.00
2022-10-09T23:09:32.233Z,100.00
2022-10-09T23:12:00.931Z,100.00
2022-10-09T23:14:28.851Z,100.00
2022-10-09T23:16:56.454Z,100.00
2022-10-09T23:19:25.338Z,100.00
2022-10-09T23:21:52.865Z,100.00
2022-10-09T23:24:20.389Z,100.00
2022-10-09T23:26:51.780Z,100.00
2022-10-09T23:29:20.679Z,100.00
2022-10-09T23:31:49.385Z,100.00
2022-10-09T23:34:17.007Z,100.00
2022-10-09T23:36:45.886Z,100.00
2022-10-09T23:39:14.222Z,100.00
2022-10-09T23:41:41.827Z,100.00
2022-10-09T23:44:09.414Z,100.00
2022-10-09T23:46:37.672Z,100.00
2022-10-09T23:49:06.469Z,100.00
2022-10-09T23:51:34.128Z,100.00
2022-10-09T23:54:03.025Z,100.00
2022-10-09T23:56:33.144Z,100.00
2022-10-09T23:59:02.244Z,100.00
